Time;durP1;ratioP1;P1;durP2;ratioP2;P2;SDS_P1;SDS_P2;PMS_P1;PMS_P2;Temp;Humidity;BMP_temperature;BMP_pressure;BME280_temperature;BME280_humidity;BME280_pressure;Samples;Min_cycle;Max_cycle;Signal;HPM_P1;HPM_P2
2023/09/06 00:01:45;;;;;;;12.05;11.65;;;21.20;99.90;;;;;;5071294;28;20223;-65
2023/09/06 00:04:12;;;;;;;12.85;12.45;;;21.20;99.90;;;;;;5071143;28;20623;-64
2023/09/06 00:06:39;;;;;;;12.10;11.70;;;21.20;99.90;;;;;;5070775;28;20299;-64
2023/09/06 00:09:06;;;;;;;12.95;12.45;;;21.10;99.90;;;;;;5072096;28;20276;-63
2023/09/06 00:11:34;;;;;;;12.45;12.05;;;21.00;99.90;;;;;;5073056;28;20210;-65
2023/09/06 00:14:03;;;;;;;12.65;12.25;;;21.00;99.90;;;;;;5074215;28;20203;-65
2023/09/06 00:16:30;;;;;;;12.18;11.77;;;20.90;99.90;;;;;;5073553;28;20259;-65
2023/09/06 00:18:59;;;;;;;12.23;11.82;;;20.90;99.90;;;;;;5073378;28;20969;-65
2023/09/06 00:21:26;;;;;;;12.00;11.60;;;20.90;99.90;;;;;;5073262;28;20203;-65
2023/09/06 00:23:53;;;;;;;11.68;11.27;;;20.80;99.90;;;;;;5073582;28;20219;-63
2023/09/06 00:26:20;;;;;;;11.77;11.38;;;20.70;99.90;;;;;;5073765;28;20219;-65
2023/09/06 00:28:49;;;;;;;11.85;11.45;;;20.60;99.90;;;;;;5073098;28;20207;-64
2023/09/06 00:31:17;;;;;;;12.23;11.82;;;20.50;99.90;;;;;;5073676;28;20610;-66
2023/09/06 00:33:45;;;;;;;11.73;11.32;;;20.50;99.90;;;;;;5074755;28;20231;-66
2023/09/06 00:36:12;;;;;;;12.55;12.15;;;20.40;99.90;;;;;;5075035;28;20593;-66
2023/09/06 00:38:39;;;;;;;12.65;12.25;;;20.40;99.90;;;;;;5075393;28;20610;-64
2023/09/06 00:41:06;;;;;;;12.25;11.85;;;20.40;99.90;;;;;;5074615;28;20212;-65
2023/09/06 00:43:33;;;;;;;12.90;12.50;;;20.30;99.90;;;;;;5073458;28;20290;-64
2023/09/06 00:46:07;;;;;;;12.40;12.00;;;20.30;99.90;;;;;;5074240;28;20204;-64
2023/09/06 00:48:34;;;;;;;13.05;12.65;;;20.20;99.90;;;;;;5072786;28;20241;-64
2023/09/06 00:51:06;;;;;;;12.20;11.80;;;20.20;99.90;;;;;;5072940;28;20243;-64
2023/09/06 00:53:33;;;;;;;12.90;12.50;;;20.10;99.90;;;;;;5073314;28;20551;-63
2023/09/06 00:56:02;;;;;;;12.00;11.60;;;20.10;99.90;;;;;;5073068;28;20302;-64
2023/09/06 00:58:32;;;;;;;12.52;12.13;;;20.00;99.90;;;;;;5072727;28;20304;-65
2023/09/06 01:00:59;;;;;;;12.93;12.52;;;20.00;99.90;;;;;;5072295;28;20223;-65
2023/09/06 01:03:27;;;;;;;12.63;12.23;;;20.00;99.90;;;;;;5073036;28;20686;-65
2023/09/06 01:06:02;;;;;;;12.60;12.20;;;19.90;99.90;;;;;;5072812;28;20581;-65
2023/09/06 01:08:35;;;;;;;12.32;11.93;;;19.90;99.90;;;;;;5072523;28;20297;-65
2023/09/06 01:11:14;;;;;;;12.95;12.45;;;19.80;99.90;;;;;;5072004;28;20203;-64
2023/09/06 01:13:41;;;;;;;12.02;11.63;;;19.80;99.90;;;;;;5072582;28;20635;-64
2023/09/06 01:16:08;;;;;;;12.07;11.68;;;19.80;99.90;;;;;;5072577;28;20630;-66
2023/09/06 01:18:36;;;;;;;12.70;12.20;;;19.80;99.90;;;;;;5072464;28;20233;-64
2023/09/06 01:21:10;;;;;;;12.70;12.30;;;19.70;99.90;;;;;;5072315;28;20210;-65
2023/09/06 01:23:40;;;;;;;12.40;11.90;;;19.60;99.90;;;;;;5071589;28;20665;-65
2023/09/06 01:26:07;;;;;;;11.82;11.43;;;19.60;99.90;;;;;;5072444;28;20183;-65
2023/09/06 01:28:39;;;;;;;12.43;12.02;;;19.50;99.90;;;;;;5072088;28;20209;-65
2023/09/06 01:33:41;;;;;;;12.32;11.93;;;19.40;99.90;;;;;;5468939;22;20795;-65
2023/09/06 01:36:08;;;;;;;11.32;10.93;;;19.30;99.90;;;;;;5021583;28;20209;-65
2023/09/06 01:38:35;;;;;;;11.82;11.43;;;19.30;99.90;;;;;;4993631;28;20213;-65
2023/09/06 01:41:04;;;;;;;12.20;11.80;;;19.20;99.90;;;;;;4992706;28;20222;-63
2023/09/06 01:43:32;;;;;;;12.20;11.75;;;19.10;99.90;;;;;;5004057;28;20225;-64
2023/09/06 01:45:58;;;;;;;11.82;11.43;;;19.10;99.90;;;;;;5012387;28;20205;-63
2023/09/06 01:48:25;;;;;;;11.48;11.07;;;19.00;99.90;;;;;;5027415;23;20220;-63
2023/09/06 01:50:53;;;;;;;12.20;11.80;;;18.90;99.90;;;;;;5032645;28;20208;-65
2023/09/06 01:53:22;;;;;;;11.80;11.40;;;18.90;99.90;;;;;;5031906;28;20205;-63
2023/09/06 01:55:50;;;;;;;11.57;11.18;;;18.90;99.90;;;;;;5032657;28;20201;-63
2023/09/06 01:58:18;;;;;;;12.13;11.73;;;18.90;99.90;;;;;;5034500;28;20259;-64
2023/09/06 02:00:45;;;;;;;11.85;11.43;;;18.90;99.90;;;;;;5020120;28;20296;-64
2023/09/06 02:03:15;;;;;;;13.80;13.30;;;18.80;99.90;;;;;;5013893;28;20296;-63
2023/09/06 02:05:43;;;;;;;11.93;11.52;;;18.70;99.90;;;;;;5014180;28;20205;-64
2023/09/06 02:08:10;;;;;;;12.52;12.13;;;18.60;99.90;;;;;;5012901;28;20233;-64
2023/09/06 02:10:37;;;;;;;12.05;11.65;;;18.60;99.90;;;;;;5014015;28;20216;-63
2023/09/06 02:13:04;;;;;;;11.88;11.48;;;18.50;99.90;;;;;;5016828;28;20202;-64
2023/09/06 02:15:33;;;;;;;12.23;11.82;;;18.50;99.90;;;;;;5019647;28;20200;-64
2023/09/06 02:17:59;;;;;;;11.55;11.15;;;18.50;99.90;;;;;;5023169;28;20231;-63
2023/09/06 02:20:27;;;;;;;11.93;11.52;;;18.40;99.90;;;;;;5031582;28;20202;-64
2023/09/06 02:22:56;;;;;;;11.57;11.18;;;18.30;99.90;;;;;;5023293;28;20314;-64
2023/09/06 02:25:24;;;;;;;11.48;11.07;;;18.30;99.90;;;;;;5015976;28;20665;-64
2023/09/06 02:27:52;;;;;;;11.30;10.90;;;18.20;99.90;;;;;;5013099;28;20283;-64
2023/09/06 02:30:20;;;;;;;11.68;11.27;;;18.20;99.90;;;;;;5013306;28;20580;-63
2023/09/06 02:32:48;;;;;;;11.25;10.85;;;18.20;99.90;;;;;;5012696;28;20200;-64
2023/09/06 02:35:15;;;;;;;11.05;10.65;;;18.20;99.90;;;;;;5012923;28;20209;-64
2023/09/06 02:37:42;;;;;;;11.73;11.33;;;18.10;99.90;;;;;;5013193;28;20750;-63
2023/09/06 02:40:13;;;;;;;11.43;10.93;;;18.20;99.90;;;;;;5012340;28;20213;-64
2023/09/06 02:42:40;;;;;;;10.88;10.48;;;18.10;99.90;;;;;;5012187;28;20704;-64
2023/09/06 02:45:09;;;;;;;11.07;10.68;;;18.10;99.90;;;;;;5012838;28;20295;-63
2023/09/06 02:47:38;;;;;;;10.98;10.57;;;18.10;99.90;;;;;;5012440;28;20601;-62
2023/09/06 02:50:11;;;;;;;11.30;10.90;;;18.10;99.90;;;;;;5012371;28;20305;-64
2023/09/06 02:52:38;;;;;;;11.02;10.63;;;18.10;99.90;;;;;;5011922;28;20203;-64
2023/09/06 02:55:10;;;;;;;11.30;10.90;;;18.10;99.90;;;;;;5012565;28;20205;-63
2023/09/06 02:57:37;;;;;;;10.98;10.48;;;18.00;99.90;;;;;;5012242;28;20296;-64
2023/09/06 03:00:17;;;;;;;10.95;10.55;;;18.00;99.90;;;;;;5012033;28;20213;-62
2023/09/06 03:02:45;;;;;;;11.00;10.50;;;18.00;99.90;;;;;;5011860;28;20231;-63
2023/09/06 03:05:17;;;;;;;11.10;10.70;;;17.90;99.90;;;;;;5012513;28;20209;-63
2023/09/06 03:07:45;;;;;;;10.82;10.43;;;17.80;99.90;;;;;;5012443;28;20268;-64
2023/09/06 03:10:12;;;;;;;10.93;10.52;;;17.80;99.90;;;;;;5011824;28;20587;-63
2023/09/06 03:12:41;;;;;;;10.80;10.40;;;17.70;99.90;;;;;;5011477;28;20198;-64
2023/09/06 03:15:10;;;;;;;10.80;10.40;;;17.70;99.90;;;;;;5011644;28;20212;-63
2023/09/06 03:17:37;;;;;;;10.88;10.48;;;17.60;99.90;;;;;;5011546;28;20221;-64
2023/09/06 03:20:18;;;;;;;11.05;10.65;;;17.60;99.90;;;;;;5013959;28;20205;-64
2023/09/06 03:22:47;;;;;;;10.07;9.77;;;17.60;99.90;;;;;;5019653;28;20585;-63
2023/09/06 03:25:15;;;;;;;10.88;10.48;;;17.50;99.90;;;;;;5012652;28;20216;-63
2023/09/06 03:27:42;;;;;;;11.23;10.82;;;17.50;99.90;;;;;;5011796;28;20221;-63
2023/09/06 03:30:10;;;;;;;10.63;10.25;;;17.40;99.90;;;;;;5013407;28;20213;-64
2023/09/06 03:32:37;;;;;;;10.90;10.50;;;17.30;99.90;;;;;;5012641;28;20201;-63
2023/09/06 03:35:08;;;;;;;11.10;10.70;;;17.20;99.90;;;;;;5020926;28;20235;-64
2023/09/06 03:37:35;;;;;;;11.02;10.63;;;17.20;99.90;;;;;;5012024;28;20221;-64
2023/09/06 03:40:12;;;;;;;10.90;10.50;;;17.30;99.90;;;;;;5011422;28;20205;-64
2023/09/06 03:42:40;;;;;;;11.00;10.60;;;17.30;99.90;;;;;;5011395;28;20643;-63
2023/09/06 03:45:15;;;;;;;11.07;10.68;;;17.30;99.90;;;;;;5011829;28;20201;-63
2023/09/06 03:47:43;;;;;;;11.77;11.38;;;17.30;99.90;;;;;;5015184;28;20224;-65
2023/09/06 03:50:10;;;;;;;11.20;10.80;;;17.10;99.90;;;;;;5015869;28;20209;-65
2023/09/06 03:52:38;;;;;;;12.10;11.70;;;17.00;99.90;;;;;;5036879;28;20228;-64
2023/09/06 03:55:09;;;;;;;11.48;11.07;;;16.80;99.90;;;;;;5042453;28;20213;-64
2023/09/06 03:57:37;;;;;;;11.93;11.48;;;16.80;99.90;;;;;;5017588;28;20229;-62
2023/09/06 04:02:59;;;;;;;11.32;10.93;;;16.60;99.90;;;;;;5110775;27;20588;-64
2023/09/06 04:05:27;;;;;;;11.00;10.60;;;16.60;99.90;;;;;;5110160;28;20206;-63
2023/09/06 04:07:58;;;;;;;11.52;11.13;;;16.60;99.90;;;;;;5110246;28;20250;-63
2023/09/06 04:10:27;;;;;;;11.70;11.30;;;16.60;99.90;;;;;;5110125;28;20259;-64
2023/09/06 04:12:55;;;;;;;11.90;11.50;;;16.60;99.90;;;;;;5109856;28;20198;-64
2023/09/06 04:15:22;;;;;;;12.00;11.60;;;16.50;99.90;;;;;;5111341;28;20285;-63
2023/09/06 04:17:58;;;;;;;12.00;11.60;;;16.50;99.90;;;;;;5111694;28;20225;-63
2023/09/06 04:20:30;;;;;;;12.35;11.95;;;16.50;99.90;;;;;;5111754;28;20206;-65
2023/09/06 04:22:58;;;;;;;11.70;11.30;;;16.40;99.90;;;;;;5110560;28;20321;-64
2023/09/06 04:25:26;;;;;;;12.13;11.73;;;16.30;99.90;;;;;;5109633;28;20210;-64
2023/09/06 04:27:54;;;;;;;12.40;12.00;;;16.30;99.90;;;;;;5109186;28;20312;-64
2023/09/06 04:30:23;;;;;;;12.43;12.02;;;16.20;99.90;;;;;;5109516;28;20198;-61
2023/09/06 04:32:50;;;;;;;11.82;11.43;;;16.20;99.90;;;;;;5109058;28;20682;-65
2023/09/06 04:35:17;;;;;;;12.13;11.73;;;16.10;99.90;;;;;;5109195;28;20202;-65
2023/09/06 04:37:45;;;;;;;12.13;11.63;;;16.00;99.90;;;;;;5109298;28;20236;-64
2023/09/06 04:40:13;;;;;;;12.15;11.75;;;16.00;99.90;;;;;;5108889;28;20203;-65
2023/09/06 04:42:40;;;;;;;12.70;12.30;;;15.90;99.90;;;;;;5123781;28;20222;-64
2023/09/06 04:45:09;;;;;;;12.75;12.35;;;15.90;99.90;;;;;;5115944;28;20291;-65
2023/09/06 04:47:37;;;;;;;11.68;11.27;;;15.90;99.90;;;;;;5103272;28;20281;-64
2023/09/06 04:50:04;;;;;;;12.05;11.65;;;15.90;99.90;;;;;;5109896;28;20218;-64
2023/09/06 04:52:37;;;;;;;11.68;11.27;;;16.00;99.90;;;;;;5109239;28;20788;-65
2023/09/06 04:55:08;;;;;;;12.38;11.98;;;16.00;99.90;;;;;;5108627;28;20292;-62
2023/09/06 04:57:37;;;;;;;11.82;11.43;;;16.00;99.90;;;;;;5099959;28;20263;-65
2023/09/06 05:00:11;;;;;;;11.82;11.43;;;15.90;99.90;;;;;;5108567;28;20296;-64
2023/09/06 05:02:38;;;;;;;12.75;12.25;;;15.90;99.90;;;;;;5100002;28;20221;-64
2023/09/06 05:05:05;;;;;;;12.07;11.67;;;16.00;99.90;;;;;;5109330;28;20206;-63
2023/09/06 05:07:32;;;;;;;12.95;12.45;;;16.00;99.90;;;;;;5107953;28;20221;-64
2023/09/06 05:09:59;;;;;;;18.88;18.17;;;16.00;99.90;;;;;;5108175;28;20206;-64
2023/09/06 05:12:27;;;;;;;11.75;11.35;;;16.10;99.90;;;;;;5104804;28;20199;-63
2023/09/06 05:14:55;;;;;;;12.55;12.15;;;16.10;99.90;;;;;;5094392;28;20202;-64
2023/09/06 05:17:23;;;;;;;13.20;12.80;;;16.10;99.90;;;;;;5094644;28;20218;-64
2023/09/06 05:19:53;;;;;;;14.02;13.52;;;16.10;99.90;;;;;;5095055;28;20712;-63
2023/09/06 05:22:19;;;;;;;13.23;12.77;;;16.00;99.90;;;;;;5094711;28;20222;-63
2023/09/06 05:24:46;;;;;;;13.05;12.55;;;16.00;99.90;;;;;;5095004;28;20207;-63
2023/09/06 05:27:14;;;;;;;12.18;11.77;;;16.00;99.90;;;;;;5099219;28;20207;-65
2023/09/06 05:29:42;;;;;;;12.88;12.38;;;15.90;99.90;;;;;;5113259;28;20270;-63
2023/09/06 05:32:09;;;;;;;12.55;12.15;;;15.90;99.90;;;;;;5106291;28;20262;-64
2023/09/06 05:34:35;;;;;;;11.98;11.57;;;15.80;99.90;;;;;;5096044;28;20207;-63
2023/09/06 05:37:03;;;;;;;11.70;11.30;;;15.80;99.90;;;;;;5098067;28;20199;-63
2023/09/06 05:39:30;;;;;;;12.00;11.60;;;15.90;99.90;;;;;;5094305;28;20649;-64
2023/09/06 05:41:57;;;;;;;11.87;11.47;;;15.90;99.90;;;;;;5093917;28;20230;-64
2023/09/06 05:44:24;;;;;;;11.57;11.18;;;15.80;99.90;;;;;;5091930;28;20196;-64
2023/09/06 05:46:52;;;;;;;11.98;11.57;;;15.90;99.90;;;;;;5084836;28;20206;-64
2023/09/06 05:49:19;;;;;;;11.95;11.55;;;15.90;99.90;;;;;;5087453;28;20215;-64
2023/09/06 05:51:46;;;;;;;12.18;11.77;;;15.90;99.90;;;;;;5087400;28;20206;-63
2023/09/06 05:54:13;;;;;;;13.17;12.67;;;15.90;99.90;;;;;;5090667;28;20203;-64
2023/09/06 05:56:39;;;;;;;12.02;11.63;;;16.10;99.90;;;;;;5093366;28;20195;-63
2023/09/06 05:59:06;;;;;;;12.48;11.98;;;16.10;99.90;;;;;;5093282;28;20227;-65
2023/09/06 06:01:33;;;;;;;12.80;12.35;;;16.20;99.90;;;;;;5092617;28;20226;-64
2023/09/06 06:04:02;;;;;;;12.38;11.98;;;16.30;99.90;;;;;;5094189;28;20298;-62
2023/09/06 06:06:29;;;;;;;13.00;12.60;;;16.40;99.90;;;;;;5095883;28;20687;-64
2023/09/06 06:08:55;;;;;;;13.15;12.75;;;16.50;99.90;;;;;;5095245;28;20249;-64
2023/09/06 06:11:22;;;;;;;13.07;12.55;;;16.50;99.90;;;;;;5094811;28;20289;-64
2023/09/06 06:13:49;;;;;;;12.80;12.40;;;16.70;99.90;;;;;;5093240;28;20212;-64
2023/09/06 06:16:16;;;;;;;13.35;12.85;;;16.80;99.90;;;;;;5093304;28;20206;-63
2023/09/06 06:18:42;;;;;;;13.40;12.90;;;16.90;99.90;;;;;;5093176;28;20215;-63
2023/09/06 06:21:11;;;;;;;12.15;11.75;;;17.00;99.90;;;;;;5092946;28;20214;-63
2023/09/06 06:23:38;;;;;;;12.57;12.18;;;17.10;99.90;;;;;;5093664;28;20298;-65
2023/09/06 06:26:04;;;;;;;12.27;11.88;;;17.10;99.90;;;;;;5092412;28;20301;-62
2023/09/06 06:28:31;;;;;;;12.45;12.05;;;17.20;99.90;;;;;;5092780;28;20415;-63
2023/09/06 06:30:58;;;;;;;12.02;11.55;;;17.30;99.90;;;;;;5092943;28;20206;-63
2023/09/06 06:33:25;;;;;;;11.88;11.48;;;17.60;99.90;;;;;;5092522;28;20285;-63
2023/09/06 06:35:52;;;;;;;11.32;10.93;;;17.50;99.90;;;;;;5092743;28;20213;-64
2023/09/06 06:38:20;;;;;;;11.52;11.13;;;17.70;99.90;;;;;;5094131;28;20226;-63
2023/09/06 06:40:47;;;;;;;11.30;10.90;;;17.80;99.90;;;;;;5094979;28;20211;-63
2023/09/06 06:43:13;;;;;;;11.57;11.18;;;17.90;99.90;;;;;;5096283;28;20219;-63
2023/09/06 06:45:47;;;;;;;11.70;11.30;;;18.00;99.90;;;;;;5096727;28;20263;-64
2023/09/06 06:48:14;;;;;;;11.93;11.53;;;18.10;99.90;;;;;;5094337;28;20592;-62
2023/09/06 06:50:41;;;;;;;12.10;11.70;;;18.30;99.90;;;;;;5084308;28;20194;-64
2023/09/06 06:53:08;;;;;;;12.63;12.20;;;18.20;99.90;;;;;;5098006;28;20207;-63
2023/09/06 06:55:37;;;;;;;12.20;11.70;;;18.30;99.90;;;;;;5095691;28;20301;-63
2023/09/06 06:58:04;;;;;;;12.43;11.93;;;18.30;99.90;;;;;;5093649;28;20680;-64
2023/09/06 07:00:31;;;;;;;12.40;12.00;;;18.20;99.90;;;;;;5092748;28;20208;-64
2023/09/06 07:02:58;;;;;;;12.32;11.82;;;18.30;99.90;;;;;;5096550;28;20234;-64
2023/09/06 07:05:25;;;;;;;11.88;11.48;;;18.20;99.90;;;;;;5102762;28;20225;-62
2023/09/06 07:07:52;;;;;;;12.75;12.25;;;18.20;99.90;;;;;;5093001;28;20222;-64
2023/09/06 07:10:19;;;;;;;12.05;11.65;;;18.30;99.90;;;;;;5092155;28;20232;-63
2023/09/06 07:12:48;;;;;;;13.70;13.20;;;18.40;99.90;;;;;;5091974;28;20202;-64
2023/09/06 07:15:15;;;;;;;14.13;13.63;;;18.40;99.90;;;;;;5091818;28;20252;-64
2023/09/06 07:17:42;;;;;;;13.73;13.23;;;18.50;99.90;;;;;;5092181;28;20237;-63
2023/09/06 07:20:10;;;;;;;14.75;14.25;;;18.60;99.90;;;;;;5092258;28;20325;-64
2023/09/06 07:22:37;;;;;;;13.43;12.93;;;18.60;99.90;;;;;;5091718;28;20226;-64
2023/09/06 07:25:04;;;;;;;15.65;15.05;;;18.70;99.90;;;;;;5092186;28;20671;-64
2023/09/06 07:27:31;;;;;;;14.82;14.27;;;18.80;99.90;;;;;;5091533;28;20229;-64
2023/09/06 07:29:59;;;;;;;15.90;15.35;;;18.80;99.90;;;;;;5091894;28;20297;-64
2023/09/06 07:32:26;;;;;;;13.25;12.80;;;18.90;99.90;;;;;;5093043;28;20697;-66
2023/09/06 07:34:53;;;;;;;16.20;15.63;;;19.00;99.90;;;;;;5092392;28;20215;-66
2023/09/06 07:37:20;;;;;;;14.93;14.43;;;19.20;99.90;;;;;;5094636;28;20690;-64
2023/09/06 07:39:47;;;;;;;15.05;14.55;;;19.40;99.90;;;;;;5092309;28;20214;-64
2023/09/06 07:42:13;;;;;;;14.25;13.75;;;19.60;99.90;;;;;;5091447;28;20225;-64
2023/09/06 07:44:40;;;;;;;14.43;13.93;;;19.70;99.90;;;;;;5092245;28;20203;-64
2023/09/06 07:47:08;;;;;;;12.77;12.38;;;19.90;99.90;;;;;;5091767;28;20198;-65
2023/09/06 07:49:35;;;;;;;14.02;13.52;;;20.00;99.90;;;;;;5086712;22;20245;-63
2023/09/06 07:52:04;;;;;;;12.95;12.50;;;20.10;99.90;;;;;;5070805;28;20205;-63
2023/09/06 07:54:32;;;;;;;14.32;13.82;;;20.10;99.90;;;;;;5070912;28;20227;-62
2023/09/06 07:56:59;;;;;;;14.27;13.77;;;20.20;99.90;;;;;;5073121;28;20313;-63
2023/09/06 07:59:25;;;;;;;14.55;13.98;;;20.40;99.90;;;;;;5077068;28;20231;-64
2023/09/06 08:01:53;;;;;;;14.60;14.10;;;20.50;99.90;;;;;;5079106;28;20565;-62
2023/09/06 08:04:21;;;;;;;13.95;13.45;;;20.60;99.90;;;;;;5077854;28;20204;-63
2023/09/06 08:06:48;;;;;;;13.52;13.02;;;20.70;99.90;;;;;;5078529;28;20210;-63
2023/09/06 08:09:15;;;;;;;14.20;13.70;;;20.80;99.90;;;;;;5074123;28;20601;-63
2023/09/06 08:11:42;;;;;;;14.57;14.07;;;21.00;99.90;;;;;;5070336;28;20205;-63
2023/09/06 08:14:09;;;;;;;14.02;13.52;;;21.10;99.90;;;;;;5070204;28;20203;-64
2023/09/06 08:16:35;;;;;;;14.65;14.15;;;21.20;99.90;;;;;;5070386;28;20569;-63
2023/09/06 08:19:03;;;;;;;14.32;13.82;;;21.20;99.90;;;;;;5070356;28;20235;-63
2023/09/06 08:21:31;;;;;;;15.23;14.63;;;21.30;99.90;;;;;;5070094;28;20290;-64
2023/09/06 08:23:58;;;;;;;14.10;13.57;;;21.40;99.90;;;;;;5056375;28;20226;-64
2023/09/06 08:26:24;;;;;;;14.45;13.95;;;21.40;99.90;;;;;;5050127;28;20204;-63
2023/09/06 08:28:51;;;;;;;14.80;14.23;;;21.60;99.90;;;;;;5050442;28;20228;-63
2023/09/06 08:31:18;;;;;;;14.63;14.13;;;21.70;99.90;;;;;;5050252;28;20229;-64
2023/09/06 08:33:45;;;;;;;14.52;14.02;;;21.70;99.90;;;;;;5049883;28;20231;-64
2023/09/06 08:36:12;;;;;;;14.90;14.40;;;21.80;99.90;;;;;;5049963;28;20212;-62
2023/09/06 08:38:41;;;;;;;14.77;14.27;;;21.90;99.90;;;;;;5049842;28;20299;-63
2023/09/06 08:41:08;;;;;;;14.90;14.30;;;22.00;99.90;;;;;;5050237;28;20239;-63
2023/09/06 08:43:37;;;;;;;15.70;15.15;;;22.10;99.90;;;;;;5050292;28;20227;-62
2023/09/06 08:46:09;;;;;;;16.70;16.10;;;22.20;99.90;;;;;;5051695;28;20212;-62
2023/09/06 08:48:38;;;;;;;16.70;16.10;;;22.20;99.90;;;;;;5052751;28;20347;-63
2023/09/06 08:51:05;;;;;;;16.65;16.05;;;22.30;99.90;;;;;;5053694;28;20224;-63
2023/09/06 08:53:34;;;;;;;15.45;14.95;;;22.50;99.90;;;;;;5053521;28;20200;-63
2023/09/06 08:56:04;;;;;;;16.60;16.00;;;22.70;99.90;;;;;;5053994;28;20526;-63
2023/09/06 08:58:32;;;;;;;15.90;15.30;;;22.80;99.90;;;;;;5053653;28;20662;-63
2023/09/06 09:00:58;;;;;;;16.67;16.08;;;22.80;99.90;;;;;;5053781;28;20603;-63
2023/09/06 09:03:25;;;;;;;15.95;15.35;;;22.70;99.90;;;;;;5052931;28;20216;-63
2023/09/06 09:05:58;;;;;;;16.42;15.82;;;22.90;99.90;;;;;;5053757;28;20211;-63
2023/09/06 09:08:28;;;;;;;16.83;16.23;;;23.10;99.90;;;;;;5053313;28;20224;-62
2023/09/06 09:11:10;;;;;;;15.90;15.35;;;23.20;99.90;;;;;;5053563;28;20370;-64
2023/09/06 09:13:36;;;;;;;15.50;14.90;;;23.30;99.90;;;;;;5053225;28;20203;-63
2023/09/06 09:16:08;;;;;;;24.80;23.73;;;23.40;99.90;;;;;;5053404;28;20222;-63
2023/09/06 09:18:35;;;;;;;14.50;14.00;;;23.40;99.90;;;;;;5053498;28;20219;-63
2023/09/06 09:21:03;;;;;;;15.70;15.20;;;23.50;99.90;;;;;;5053971;28;20204;-62
2023/09/06 09:23:30;;;;;;;15.73;15.18;;;23.60;99.90;;;;;;5053188;28;20238;-63
2023/09/06 09:25:57;;;;;;;15.13;14.52;;;23.70;99.90;;;;;;5053851;28;20204;-64
2023/09/06 09:28:28;;;;;;;16.35;15.75;;;23.70;99.90;;;;;;5053185;28;20224;-63
2023/09/06 09:30:57;;;;;;;14.93;14.40;;;23.80;99.90;;;;;;5066124;28;20214;-62
2023/09/06 09:33:28;;;;;;;14.15;13.65;;;24.00;99.90;;;;;;5072960;28;20208;-62
2023/09/06 09:35:55;;;;;;;13.85;13.35;;;24.10;99.90;;;;;;5060533;28;20203;-63
2023/09/06 09:38:21;;;;;;;15.75;15.15;;;24.20;99.90;;;;;;5053341;28;20706;-62
2023/09/06 09:41:04;;;;;;;13.35;12.85;;;24.30;99.90;;;;;;5054765;28;20204;-63
2023/09/06 09:43:32;;;;;;;13.57;12.65;;;24.40;99.90;;;;;;5053964;28;20231;-63
2023/09/06 09:45:59;;;;;;;14.45;13.95;;;24.50;99.90;;;;;;5054960;28;20214;-62
2023/09/06 09:48:30;;;;;;;15.80;15.18;;;24.70;99.90;;;;;;5053724;28;20236;-63
2023/09/06 09:50:57;;;;;;;13.75;13.25;;;24.60;99.90;;;;;;5053460;28;20586;-63
2023/09/06 09:53:25;;;;;;;15.27;14.68;;;24.60;99.90;;;;;;5052700;28;20196;-62
2023/09/06 09:55:55;;;;;;;14.38;13.88;;;24.70;99.90;;;;;;5053408;28;20231;-63
2023/09/06 09:58:22;;;;;;;12.80;12.30;;;24.70;99.90;;;;;;5061014;28;20223;-63
2023/09/06 10:00:51;;;;;;;13.27;12.77;;;24.70;99.90;;;;;;5072962;28;20231;-62
2023/09/06 10:03:18;;;;;;;13.95;13.45;;;24.90;99.90;;;;;;5072591;28;20225;-63
2023/09/06 10:05:47;;;;;;;13.48;12.98;;;25.00;99.90;;;;;;5073165;28;20207;-63
2023/09/06 10:08:17;;;;;;;15.95;15.38;;;25.20;99.90;;;;;;5073721;28;20231;-63
2023/09/06 10:10:44;;;;;;;14.13;13.52;;;25.20;99.90;;;;;;5073005;28;20213;-63
2023/09/06 10:13:14;;;;;;;13.85;13.35;;;25.20;99.90;;;;;;5072907;28;20207;-63
2023/09/06 10:15:43;;;;;;;13.73;13.23;;;25.30;99.90;;;;;;5072369;28;20207;-63
2023/09/06 10:18:11;;;;;;;14.40;13.90;;;25.40;99.90;;;;;;5072290;28;20223;-63
2023/09/06 10:20:39;;;;;;;14.10;13.60;;;25.30;99.90;;;;;;5072081;28;20253;-63
2023/09/06 10:23:07;;;;;;;13.77;13.27;;;25.30;99.90;;;;;;5072195;28;20698;-63
2023/09/06 10:25:40;;;;;;;14.82;14.32;;;25.50;99.90;;;;;;5073241;28;20208;-63
2023/09/06 10:28:07;;;;;;;14.60;14.10;;;25.60;99.90;;;;;;5074033;28;20223;-63
2023/09/06 10:30:43;;;;;;;14.45;13.85;;;25.70;99.90;;;;;;5077000;28;20199;-62
2023/09/06 10:33:32;;;;;;;15.07;14.55;;;25.80;99.90;;;;;;5068732;28;20199;-63
2023/09/06 10:36:02;;;;;;;15.15;14.65;;;25.80;99.90;;;;;;5058093;28;20214;-63
2023/09/06 10:38:30;;;;;;;15.80;15.20;;;26.00;99.90;;;;;;5053030;28;20629;-62
2023/09/06 10:41:10;;;;;;;21.25;20.45;;;26.00;99.90;;;;;;5072220;28;20714;-63
2023/09/06 10:44:01;;;;;;;52.33;49.78;;;25.90;99.90;;;;;;5071393;28;20788;-63
2023/09/06 10:46:29;;;;;;;15.30;14.80;;;25.80;99.90;;;;;;5052295;28;20200;-63
2023/09/06 10:49:17;;;;;;;28.27;27.08;;;25.80;99.90;;;;;;5052405;28;20246;-62
2023/09/06 10:52:00;;;;;;;18.40;17.65;;;25.80;99.90;;;;;;5052200;28;20214;-63
2023/09/06 10:54:34;;;;;;;16.35;15.75;;;25.80;99.90;;;;;;5052501;28;20200;-64
2023/09/06 10:57:03;;;;;;;16.20;15.63;;;25.90;99.90;;;;;;5052394;28;20214;-63
2023/09/06 10:59:30;;;;;;;14.70;14.20;;;26.00;99.90;;;;;;5059268;28;20698;-62
2023/09/06 11:02:17;;;;;;;18.92;18.23;;;26.20;99.90;;;;;;5056574;28;20223;-63
2023/09/06 11:04:45;;;;;;;16.70;16.10;;;26.30;99.90;;;;;;5057374;28;20310;-63
2023/09/06 11:07:12;;;;;;;15.82;15.32;;;26.50;99.90;;;;;;5054960;28;20196;-63
2023/09/06 11:09:43;;;;;;;16.08;15.48;;;26.60;99.90;;;;;;5051693;28;20659;-64
2023/09/06 11:12:13;;;;;;;17.48;16.88;;;26.50;99.90;;;;;;5051024;28;20307;-62
2023/09/06 11:14:41;;;;;;;17.25;16.65;;;26.50;99.90;;;;;;5052098;28;20200;-62
2023/09/06 11:17:08;;;;;;;16.80;16.20;;;26.60;99.90;;;;;;5051700;28;20268;-63
2023/09/06 11:19:36;;;;;;;16.67;16.08;;;26.60;99.90;;;;;;5051985;28;20223;-63
2023/09/06 11:22:10;;;;;;;25.23;24.13;;;26.70;99.90;;;;;;5051414;28;20204;-63
2023/09/06 11:24:38;;;;;;;15.57;15.07;;;26.80;99.90;;;;;;5051518;28;20355;-64
2023/09/06 11:27:20;;;;;;;18.23;17.63;;;26.80;99.90;;;;;;5052043;28;20637;-62
2023/09/06 11:29:49;;;;;;;28.92;27.73;;;26.90;99.90;;;;;;5054583;28;20277;-61
2023/09/06 11:32:17;;;;;;;17.13;16.50;;;26.90;99.90;;;;;;5051411;28;20573;-62
2023/09/06 11:34:45;;;;;;;17.42;16.83;;;26.90;99.90;;;;;;5051247;28;20857;-63
2023/09/06 11:37:15;;;;;;;16.52;15.93;;;27.10;99.90;;;;;;5065882;28;20238;-62
2023/09/06 11:39:43;;;;;;;17.23;16.63;;;27.30;99.90;;;;;;5072833;28;20288;-62
2023/09/06 11:42:13;;;;;;;26.67;25.67;;;27.40;99.90;;;;;;5058326;28;20206;-62
2023/09/06 11:44:49;;;;;;;20.30;19.38;;;27.50;99.90;;;;;;5051813;28;20220;-63
2023/09/06 11:47:17;;;;;;;25.88;24.98;;;27.40;99.90;;;;;;5058877;28;20707;-63
2023/09/06 11:49:46;;;;;;;22.65;21.85;;;27.20;99.90;;;;;;5071127;28;20235;-63
2023/09/06 11:52:19;;;;;;;19.05;18.35;;;27.20;99.90;;;;;;5071167;28;20206;-63
2023/09/06 11:54:49;;;;;;;21.98;21.17;;;27.30;99.90;;;;;;5071847;28;20210;-63
2023/09/06 11:57:23;;;;;;;19.85;19.15;;;27.50;99.90;;;;;;5073455;28;20266;-63
2023/09/06 11:59:52;;;;;;;20.63;19.92;;;27.60;99.90;;;;;;5071462;28;20277;-63
2023/09/06 12:02:21;;;;;;;21.20;20.48;;;27.60;99.90;;;;;;5072379;28;20205;-62
2023/09/06 12:05:00;;;;;;;30.30;29.23;;;27.80;99.90;;;;;;5071408;28;20204;-62
2023/09/06 12:07:28;;;;;;;32.72;31.40;;;27.70;99.90;;;;;;5078459;28;20230;-63
2023/09/06 12:09:58;;;;;;;38.30;36.78;;;27.70;99.90;;;;;;5091454;28;20199;-63
2023/09/06 12:12:25;;;;;;;23.60;22.70;;;27.60;99.90;;;;;;5083178;28;20297;-62
2023/09/06 12:14:52;;;;;;;20.73;20.02;;;27.70;99.90;;;;;;5072697;28;20207;-62
2023/09/06 12:17:20;;;;;;;23.63;22.73;;;27.90;99.90;;;;;;5072531;28;20199;-63
2023/09/06 12:19:47;;;;;;;28.80;27.77;;;28.00;99.90;;;;;;5071701;28;20223;-63
2023/09/06 12:22:14;;;;;;;28.83;27.77;;;28.10;99.90;;;;;;5071608;28;20206;-63
2023/09/06 12:24:47;;;;;;;20.08;19.35;;;28.10;99.90;;;;;;5075168;28;20219;-63
2023/09/06 12:27:18;;;;;;;23.50;22.65;;;28.10;99.90;;;;;;5075997;28;20630;-63
2023/09/06 12:29:45;;;;;;;38.70;37.17;;;28.30;99.90;;;;;;5075685;28;20766;-63
2023/09/06 12:32:11;;;;;;;29.55;28.45;;;28.40;99.90;;;;;;5075425;28;20258;-63
2023/09/06 12:34:38;;;;;;;31.48;30.38;;;28.40;99.90;;;;;;5075727;28;20221;-64
2023/09/06 12:37:05;;;;;;;32.60;31.40;;;28.50;99.90;;;;;;5071057;28;20196;-63
2023/09/06 12:39:32;;;;;;;35.40;34.10;;;28.50;99.90;;;;;;5055566;28;20220;-64
2023/09/06 12:42:00;;;;;;;33.30;32.10;;;28.50;99.90;;;;;;5055183;28;20304;-64